Ark, Virginia
Current Conditions -  °F | °C
As of 3:15 PM on Thursday 18 Dec 2014 (Local Time) from KFYJ Reporting Station
Clear Clear  
Wind Chill:   Ceiling: Unl
Heat Index:   Visibility: 10mi
Dew Point: -6°   Wind: 5mph
Humidity: 37%   Direction: 270°W
Pressure: 30.11"   Gusts: NA
Location:  37.44°N, 76.58°W
Report Text: KFYJ 182015Z AUTO 27004KT 10SM CLR 08/M06 A3011 RMK AO2 T00801060
Loading
Personal Weather Stations






























Interactive Weather Map New forecast layout! Learn more

10-Day Weather Forecast

Advertisements
Track Severe Weather on mobile